Time;durP1;ratioP1;P1;durP2;ratioP2;P2;SDS_P1;SDS_P2;PMS_P1;PMS_P2;Temp;Humidity;BMP_temperature;BMP_pressure;BME280_temperature;BME280_humidity;BME280_pressure;Samples;Min_cycle;Max_cycle;Signal;HPM_P1;HPM_P2
2023/10/01 00:01:46;;;;;;;11.33;7.47;;;;;14.00;101917.00;;;;5021663;28;20603;-69
2023/10/01 00:04:32;;;;;;;11.07;7.43;;;;;14.00;101897.00;;;;5006070;28;20668;-66
2023/10/01 00:07:19;;;;;;;15.80;7.50;;;;;13.90;101908.00;;;;5024422;28;20842;-68
2023/10/01 00:10:10;;;;;;;11.30;7.10;;;;;13.90;101920.00;;;;5024696;28;20237;-67
2023/10/01 00:12:58;;;;;;;13.67;7.73;;;;;13.90;101913.00;;;;5025912;28;20248;-68
2023/10/01 00:15:46;;;;;;;12.20;8.03;;;;;13.90;101921.00;;;;5027041;28;20235;-70
2023/10/01 00:18:34;;;;;;;13.17;7.77;;;;;13.80;101902.00;;;;5024527;28;20779;-67
2023/10/01 00:21:20;;;;;;;12.10;8.00;;;;;13.80;101902.00;;;;5026061;28;20233;-69
2023/10/01 00:24:09;;;;;;;11.53;8.13;;;;;13.70;101908.00;;;;5021253;28;20243;-68
2023/10/01 00:26:56;;;;;;;14.40;8.23;;;;;13.70;101900.00;;;;5017909;28;20241;-69
2023/10/01 00:29:42;;;;;;;12.10;8.53;;;;;13.60;101915.00;;;;5019078;28;20812;-66
2023/10/01 00:32:30;;;;;;;12.33;8.20;;;;;13.60;101910.00;;;;5018721;28;20755;-68
2023/10/01 00:35:18;;;;;;;15.00;8.23;;;;;13.60;101914.00;;;;5022435;28;20298;-68
2023/10/01 00:38:05;;;;;;;14.63;8.20;;;;;13.60;101909.00;;;;5025224;28;20276;-70
2023/10/01 00:40:51;;;;;;;13.93;8.63;;;;;13.50;101901.00;;;;5021875;28;20618;-69
2023/10/01 00:43:37;;;;;;;12.33;7.83;;;;;13.50;101897.00;;;;5019517;28;20241;-68
2023/10/01 00:46:24;;;;;;;13.37;7.60;;;;;13.40;101913.00;;;;5025168;28;20731;-68
2023/10/01 00:49:13;;;;;;;13.80;7.23;;;;;13.40;101913.00;;;;5020751;28;20696;-68
2023/10/01 00:52:00;;;;;;;14.57;8.73;;;;;13.40;101910.00;;;;5025635;28;20233;-68
2023/10/01 00:54:47;;;;;;;13.30;8.13;;;;;13.40;101901.00;;;;5022939;28;20561;-66
2023/10/01 00:57:37;;;;;;;12.87;8.40;;;;;13.40;101900.00;;;;5018710;28;20232;-68
2023/10/01 01:00:25;;;;;;;16.87;9.07;;;;;13.60;101894.00;;;;5018149;28;20229;-69
2023/10/01 01:03:19;;;;;;;13.20;8.90;;;;;13.60;101896.00;;;;5018121;28;20234;-67
2023/10/01 01:06:17;;;;;;;14.00;8.80;;;;;13.60;101904.00;;;;5013596;28;20889;-68
2023/10/01 01:09:10;;;;;;;14.33;8.77;;;;;13.60;101908.00;;;;5024618;28;20746;-68
2023/10/01 01:11:57;;;;;;;12.20;8.83;;;;;13.60;101895.00;;;;5019092;28;20789;-67
2023/10/01 01:14:44;;;;;;;12.73;8.97;;;;;13.60;101891.00;;;;5020594;28;20238;-68
2023/10/01 01:17:31;;;;;;;13.63;8.10;;;;;13.60;101888.00;;;;5002571;28;20761;-67
2023/10/01 01:20:19;;;;;;;14.07;8.77;;;;;13.70;101889.00;;;;5024690;28;20233;-68
2023/10/01 01:23:08;;;;;;;13.73;8.63;;;;;13.70;101884.00;;;;5020228;28;20596;-69
2023/10/01 01:25:56;;;;;;;12.43;7.83;;;;;13.70;101879.00;;;;5015738;28;20421;-68
2023/10/01 01:28:42;;;;;;;13.63;7.73;;;;;13.70;101885.00;;;;5019968;28;20313;-67
2023/10/01 01:31:29;;;;;;;10.63;7.87;;;;;13.70;101876.00;;;;5021447;28;20234;-68
2023/10/01 01:34:16;;;;;;;11.37;6.93;;;;;13.60;101873.00;;;;5019949;28;20241;-67
2023/10/01 01:37:05;;;;;;;11.33;7.80;;;;;13.60;101855.00;;;;5021337;28;21073;-67
2023/10/01 01:39:54;;;;;;;13.93;7.73;;;;;13.60;101850.00;;;;5015688;28;20242;-68
2023/10/01 01:42:40;;;;;;;13.40;8.00;;;;;13.50;101844.00;;;;5024949;28;20234;-68
2023/10/01 01:45:27;;;;;;;11.73;7.33;;;;;13.40;101847.00;;;;5022538;28;20831;-68
2023/10/01 01:48:28;;;;;;;14.60;8.03;;;;;13.40;101860.00;;;;5019534;28;20241;-67
2023/10/01 01:51:17;;;;;;;14.97;8.00;;;;;13.40;101862.00;;;;5020042;28;20357;-68
2023/10/01 01:54:04;;;;;;;12.47;8.33;;;;;13.40;101844.00;;;;5015602;28;20239;-67
2023/10/01 01:56:52;;;;;;;13.37;7.80;;;;;13.40;101839.00;;;;5014683;28;20727;-68
2023/10/01 01:59:38;;;;;;;11.60;7.20;;;;;13.30;101842.00;;;;5020212;28;20368;-67
2023/10/01 02:02:25;;;;;;;13.23;7.57;;;;;13.30;101849.00;;;;5018407;28;20360;-67
2023/10/01 02:05:11;;;;;;;13.93;8.13;;;;;13.20;101847.00;;;;5013626;28;20635;-71
2023/10/01 02:08:06;;;;;;;11.03;7.40;;;;;13.20;101852.00;;;;5018460;28;20284;-68
2023/10/01 02:10:54;;;;;;;12.50;8.00;;;;;13.20;101850.00;;;;5019156;28;20743;-67
2023/10/01 02:13:45;;;;;;;14.00;7.43;;;;;13.20;101852.00;;;;5022433;28;20296;-70
2023/10/01 02:16:40;;;;;;;13.40;9.10;;;;;13.20;101855.00;;;;5023801;28;20253;-67
2023/10/01 02:19:26;;;;;;;14.27;8.13;;;;;13.20;101852.00;;;;5023003;28;20304;-69
2023/10/01 02:22:13;;;;;;;13.67;8.00;;;;;13.30;101841.00;;;;5020655;28;20287;-68
2023/10/01 02:25:02;;;;;;;14.43;8.60;;;;;13.30;101837.00;;;;5024074;28;20233;-67
2023/10/01 02:28:06;;;;;;;12.27;8.40;;;;;13.20;101837.00;;;;5023155;28;20250;-70
2023/10/01 02:31:00;;;;;;;12.20;7.67;;;;;13.20;101830.00;;;;5020657;28;20280;-68
2023/10/01 02:33:55;;;;;;;12.50;7.67;;;;;13.10;101829.00;;;;5010752;28;20284;-68
2023/10/01 02:36:44;;;;;;;14.53;8.23;;;;;13.00;101841.00;;;;5011992;28;20437;-69
2023/10/01 02:39:30;;;;;;;11.90;7.77;;;;;13.00;101837.00;;;;5012570;28;20233;-69
2023/10/01 02:42:21;;;;;;;12.83;8.50;;;;;12.90;101833.00;;;;5014972;28;20679;-68
2023/10/01 02:45:30;;;;;;;16.80;8.10;;;;;12.90;101832.00;;;;5020116;28;20229;-68
2023/10/01 02:48:16;;;;;;;15.57;9.13;;;;;12.80;101838.00;;;;5018455;28;20256;-67
2023/10/01 02:51:15;;;;;;;15.60;8.00;;;;;12.80;101839.00;;;;5024666;28;20622;-67
2023/10/01 02:54:05;;;;;;;14.63;8.23;;;;;12.80;101838.00;;;;5015851;28;20232;-68
2023/10/01 02:57:11;;;;;;;16.83;9.30;;;;;12.80;101839.00;;;;5018087;28;20344;-69
2023/10/01 03:00:20;;;;;;;10.70;8.07;;;;;12.80;101839.00;;;;5017088;28;20237;-66
2023/10/01 03:03:14;;;;;;;14.90;8.33;;;;;12.80;101840.00;;;;5014724;28;20373;-69
2023/10/01 03:06:08;;;;;;;14.13;8.40;;;;;12.80;101828.00;;;;5013813;28;20245;-68
2023/10/01 03:09:02;;;;;;;13.03;8.63;;;;;12.80;101824.00;;;;5016442;28;20663;-68
2023/10/01 03:11:53;;;;;;;14.03;8.60;;;;;12.70;101827.00;;;;5020310;28;20245;-69
2023/10/01 03:14:43;;;;;;;13.97;8.67;;;;;12.70;101830.00;;;;5019034;28;20225;-68
2023/10/01 03:17:34;;;;;;;16.57;9.47;;;;;12.70;101831.00;;;;5020863;28;20230;-69
2023/10/01 03:23:29;;;;;;;15.87;9.37;;;;;12.70;101836.00;;;;5016963;28;20222;-68
2023/10/01 03:26:17;;;;;;;12.07;8.60;;;;;12.60;101828.00;;;;5026300;28;20229;-70
2023/10/01 03:29:17;;;;;;;13.83;8.67;;;;;12.70;101835.00;;;;5022756;28;20737;-69
2023/10/01 03:32:27;;;;;;;17.27;9.30;;;;;12.70;101841.00;;;;5022069;28;20241;-69
2023/10/01 03:35:10;;;;;;;14.40;8.73;;;;;12.70;101835.00;;;;5018014;28;20287;-66
2023/10/01 03:38:09;;;;;;;14.23;9.67;;;;;12.70;101837.00;;;;5020976;28;20767;-69
2023/10/01 03:41:01;;;;;;;15.43;9.20;;;;;12.70;101840.00;;;;5022315;28;20237;-70
2023/10/01 03:43:50;;;;;;;14.47;8.93;;;;;12.80;101843.00;;;;5024829;28;20998;-68
2023/10/01 03:46:45;;;;;;;14.10;8.93;;;;;12.80;101835.00;;;;5021053;28;20249;-67
2023/10/01 03:49:37;;;;;;;14.83;8.97;;;;;12.80;101832.00;;;;5021189;28;21283;-68
2023/10/01 03:52:28;;;;;;;15.13;8.63;;;;;12.80;101834.00;;;;5019087;28;20226;-68
2023/10/01 03:55:26;;;;;;;15.60;8.47;;;;;12.80;101835.00;;;;5021389;28;20237;-67
2023/10/01 03:58:26;;;;;;;12.97;8.30;;;;;12.70;101824.00;;;;5020956;28;20246;-68
2023/10/01 04:01:26;;;;;;;16.20;8.17;;;;;12.80;101826.00;;;;5022374;28;20229;-67
2023/10/01 04:04:15;;;;;;;13.53;8.53;;;;;12.80;101827.00;;;;5019604;28;20234;-68
2023/10/01 04:07:10;;;;;;;12.37;8.33;;;;;12.80;101824.00;;;;5019139;28;20280;-68
2023/10/01 04:09:57;;;;;;;14.13;8.47;;;;;12.90;101825.00;;;;5022436;28;20236;-68
2023/10/01 04:12:49;;;;;;;15.17;8.10;;;;;12.90;101837.00;;;;5026463;28;20753;-69
2023/10/01 04:15:41;;;;;;;15.30;8.47;;;;;12.90;101838.00;;;;5014934;28;20261;-68
2023/10/01 04:18:28;;;;;;;13.97;8.20;;;;;13.00;101841.00;;;;5021633;28;20253;-70
2023/10/01 04:21:26;;;;;;;13.27;8.80;;;;;13.00;101832.00;;;;5026258;28;20246;-69
2023/10/01 04:24:13;;;;;;;15.40;8.23;;;;;13.00;101836.00;;;;5015148;28;20894;-69
2023/10/01 04:27:21;;;;;;;13.80;8.00;;;;;13.00;101839.00;;;;5024693;28;20228;-68
2023/10/01 04:30:10;;;;;;;22.70;9.60;;;;;13.10;101826.00;;;;5021138;28;20375;-67
2023/10/01 04:32:58;;;;;;;16.13;8.87;;;;;13.10;101827.00;;;;5024712;28;20241;-68
2023/10/01 04:35:51;;;;;;;14.30;8.60;;;;;13.10;101831.00;;;;5022644;28;20223;-68
2023/10/01 04:38:41;;;;;;;12.47;8.33;;;;;13.10;101828.00;;;;5021266;28;20252;-68
2023/10/01 04:41:28;;;;;;;13.87;8.93;;;;;13.20;101822.00;;;;5023679;28;20387;-68
2023/10/01 04:44:19;;;;;;;17.23;8.60;;;;;13.20;101821.00;;;;5019961;28;20258;-67
2023/10/01 04:47:30;;;;;;;13.90;8.30;;;;;13.20;101825.00;;;;5016834;28;20230;-70
2023/10/01 04:50:20;;;;;;;15.13;8.37;;;;;13.30;101830.00;;;;5017779;28;20370;-68
2023/10/01 04:53:07;;;;;;;16.70;8.77;;;;;13.30;101828.00;;;;5014819;28;20303;-69
2023/10/01 04:56:01;;;;;;;15.57;8.33;;;;;13.30;101830.00;;;;5022296;28;20230;-69
2023/10/01 04:58:51;;;;;;;11.50;7.63;;;;;13.30;101831.00;;;;5018267;28;20280;-68
2023/10/01 05:01:38;;;;;;;15.10;8.10;;;;;13.30;101828.00;;;;5019688;28;20948;-69
2023/10/01 05:04:24;;;;;;;12.43;8.33;;;;;13.30;101828.00;;;;5024883;28;20225;-69
2023/10/01 05:07:15;;;;;;;13.37;8.67;;;;;13.40;101832.00;;;;5023349;28;20229;-67
2023/10/01 05:10:03;;;;;;;15.17;8.50;;;;;13.40;101839.00;;;;5024925;28;20241;-68
2023/10/01 05:12:55;;;;;;;13.40;8.60;;;;;13.40;101841.00;;;;5021754;28;20601;-68
2023/10/01 05:15:41;;;;;;;14.20;7.90;;;;;13.40;101837.00;;;;5024941;28;20236;-69
2023/10/01 05:18:27;;;;;;;12.90;7.70;;;;;13.40;101838.00;;;;5026024;28;20721;-71
2023/10/01 05:21:14;;;;;;;15.50;8.17;;;;;13.40;101840.00;;;;5022477;28;20288;-68
2023/10/01 05:24:02;;;;;;;13.43;7.80;;;;;13.50;101832.00;;;;5011903;28;20773;-70
2023/10/01 05:26:51;;;;;;;13.60;7.40;;;;;13.50;101837.00;;;;5019379;28;20296;-68
2023/10/01 05:29:39;;;;;;;11.60;6.77;;;;;13.50;101835.00;;;;5024165;28;20937;-66
2023/10/01 05:32:25;;;;;;;14.50;6.97;;;;;13.50;101829.00;;;;5016114;28;20721;-67
2023/10/01 05:35:16;;;;;;;10.43;6.60;;;;;13.40;101823.00;;;;5019566;28;20297;-68
2023/10/01 05:38:04;;;;;;;12.77;7.63;;;;;13.40;101827.00;;;;5017567;28;20638;-69
2023/10/01 05:40:54;;;;;;;10.30;7.33;;;;;13.40;101837.00;;;;5021714;28;20869;-68
2023/10/01 05:43:47;;;;;;;13.30;7.40;;;;;13.40;101835.00;;;;5022472;28;20285;-69
2023/10/01 05:46:34;;;;;;;11.30;6.90;;;;;13.40;101841.00;;;;5020511;28;20734;-68
2023/10/01 05:49:22;;;;;;;12.67;6.97;;;;;13.40;101839.00;;;;5023306;28;20237;-68
2023/10/01 05:52:08;;;;;;;13.67;7.53;;;;;13.30;101828.00;;;;5021895;28;20558;-69
2023/10/01 05:54:55;;;;;;;9.90;6.47;;;;;13.30;101830.00;;;;5024274;28;20289;-70
2023/10/01 05:57:43;;;;;;;14.07;6.97;;;;;13.30;101839.00;;;;5022683;28;20251;-70
2023/10/01 06:00:34;;;;;;;10.63;6.23;;;;;13.30;101843.00;;;;5013676;28;20296;-68
2023/10/01 06:03:23;;;;;;;11.57;7.27;;;;;13.30;101839.00;;;;5019444;28;20229;-68
2023/10/01 06:06:13;;;;;;;11.37;6.27;;;;;13.20;101840.00;;;;5014561;28;20603;-69
2023/10/01 06:09:00;;;;;;;11.40;6.17;;;;;13.20;101841.00;;;;5017943;28;20280;-68
2023/10/01 06:11:51;;;;;;;9.43;5.93;;;;;13.20;101834.00;;;;5018946;28;20229;-71
2023/10/01 06:14:39;;;;;;;9.93;6.27;;;;;13.20;101840.00;;;;5019517;28;20243;-68
2023/10/01 06:17:28;;;;;;;11.50;6.57;;;;;13.20;101845.00;;;;5023917;28;20292;-68
2023/10/01 06:20:26;;;;;;;11.27;6.47;;;;;13.30;101835.00;;;;5022607;28;20230;-68
2023/10/01 06:23:13;;;;;;;11.73;6.10;;;;;13.30;101835.00;;;;5013634;28;20236;-68
2023/10/01 06:25:59;;;;;;;13.33;6.10;;;;;13.30;101830.00;;;;5017152;28;20241;-71
2023/10/01 06:28:45;;;;;;;11.70;6.20;;;;;13.40;101830.00;;;;5022658;28;20604;-68
2023/10/01 06:31:48;;;;;;;10.10;6.33;;;;;13.40;101823.00;;;;5021179;28;20284;-69
2023/10/01 06:34:39;;;;;;;11.50;6.70;;;;;13.50;101826.00;;;;5004432;28;20237;-68
2023/10/01 06:37:45;;;;;;;10.57;6.00;;;;;13.50;101826.00;;;;5019899;28;20225;-69
2023/10/01 06:40:32;;;;;;;10.57;5.90;;;;;13.60;101832.00;;;;5015865;28;20263;-68
2023/10/01 06:43:20;;;;;;;11.03;6.00;;;;;13.60;101834.00;;;;5012472;28;20225;-67
2023/10/01 06:46:06;;;;;;;12.90;6.13;;;;;13.60;101835.00;;;;5015361;28;20315;-69
2023/10/01 06:48:56;;;;;;;11.17;6.10;;;;;13.70;101848.00;;;;5011128;28;20642;-68
2023/10/01 06:51:44;;;;;;;9.83;5.60;;;;;13.80;101849.00;;;;5015923;28;20308;-68
2023/10/01 06:54:33;;;;;;;11.27;6.03;;;;;13.80;101852.00;;;;5025069;28;20226;-68
2023/10/01 06:57:22;;;;;;;11.70;6.13;;;;;13.90;101849.00;;;;5021183;28;20748;-67
2023/10/01 07:00:17;;;;;;;9.70;5.70;;;;;14.00;101838.00;;;;5016901;28;20355;-68
2023/10/01 07:03:21;;;;;;;14.30;5.70;;;;;14.10;101845.00;;;;5020336;28;20235;-67
2023/10/01 07:06:10;;;;;;;8.43;5.60;;;;;14.20;101852.00;;;;5024695;28;20610;-67
2023/10/01 07:08:57;;;;;;;10.17;5.87;;;;;14.20;101855.00;;;;5023395;28;20320;-67
2023/10/01 07:11:43;;;;;;;11.70;5.93;;;;;14.30;101849.00;;;;5024273;28;20225;-66
2023/10/01 07:14:38;;;;;;;9.83;5.90;;;;;14.40;101851.00;;;;5026815;28;20851;-64
2023/10/01 07:17:25;;;;;;;9.00;5.67;;;;;14.40;101858.00;;;;5021992;28;20237;-69
2023/10/01 07:20:18;;;;;;;10.03;5.07;;;;;14.50;101849.00;;;;5020534;28;20608;-67
2023/10/01 07:23:07;;;;;;;10.70;5.10;;;;;14.60;101841.00;;;;5017056;28;20285;-67
2023/10/01 07:26:00;;;;;;;11.53;5.37;;;;;14.70;101847.00;;;;5025275;28;20802;-67
2023/10/01 07:28:55;;;;;;;12.60;5.40;;;;;14.80;101846.00;;;;5020270;28;20235;-66
2023/10/01 07:31:45;;;;;;;9.80;5.27;;;;;14.90;101846.00;;;;5021650;28;20303;-67
2023/10/01 07:34:32;;;;;;;10.23;5.53;;;;;15.00;101834.00;;;;5023093;28;20318;-69
2023/10/01 07:37:25;;;;;;;14.83;5.73;;;;;15.00;101837.00;;;;5025425;28;20252;-67
2023/10/01 07:40:17;;;;;;;11.67;5.43;;;;;15.20;101838.00;;;;5017489;28;20228;-67
2023/10/01 07:43:03;;;;;;;10.27;5.50;;;;;15.30;101834.00;;;;5015864;28;20232;-67
2023/10/01 07:45:58;;;;;;;11.33;5.23;;;;;15.30;101837.00;;;;5018150;28;20823;-68
2023/10/01 07:48:47;;;;;;;8.17;4.77;;;;;15.40;101831.00;;;;5025484;28;20254;-67
2023/10/01 07:51:38;;;;;;;10.63;5.20;;;;;15.50;101837.00;;;;5016555;28;20248;-68
2023/10/01 07:54:28;;;;;;;10.10;5.10;;;;;15.50;101834.00;;;;5015434;28;20773;-67
2023/10/01 07:57:18;;;;;;;12.73;5.63;;;;;15.70;101821.00;;;;5025844;28;20231;-67
2023/10/01 08:00:25;;;;;;;10.43;5.20;;;;;15.80;101823.00;;;;5023880;28;20229;-68
2023/10/01 08:03:32;;;;;;;10.93;5.23;;;;;15.90;101835.00;;;;5018282;28;20233;-69
2023/10/01 08:06:25;;;;;;;12.20;5.43;;;;;16.00;101836.00;;;;5025359;28;20300;-68
2023/10/01 08:09:13;;;;;;;12.73;5.37;;;;;16.00;101842.00;;;;5015653;28;20240;-69
2023/10/01 08:11:59;;;;;;;12.00;5.60;;;;;16.10;101849.00;;;;5010866;28;20843;-69
2023/10/01 08:15:15;;;;;;;10.60;4.97;;;;;16.20;101842.00;;;;5016333;28;20230;-68
2023/10/01 08:17:54;;;;;;;9.63;5.10;;;;;16.20;101840.00;;;;5017883;28;20607;-69
2023/10/01 08:20:56;;;;;;;10.63;5.43;;;;;16.40;101849.00;;;;5019633;28;20238;-68
2023/10/01 08:23:48;;;;;;;14.60;5.63;;;;;16.40;101863.00;;;;5019355;28;20237;-67
2023/10/01 08:26:44;;;;;;;13.20;5.73;;;;;16.50;101855.00;;;;5017530;28;20601;-69
2023/10/01 08:29:59;;;;;;;15.20;5.67;;;;;16.60;101851.00;;;;5021176;28;20236;-67
2023/10/01 08:32:39;;;;;;;11.00;5.60;;;;;16.80;101852.00;;;;5011645;28;20228;-68
2023/10/01 08:35:32;;;;;;;11.87;5.67;;;;;16.80;101847.00;;;;5019257;28;20226;-71
2023/10/01 08:38:19;;;;;;;10.80;5.27;;;;;16.90;101845.00;;;;5020262;28;20236;-68
2023/10/01 08:41:06;;;;;;;13.50;5.70;;;;;17.10;101848.00;;;;5022655;28;20578;-68
2023/10/01 08:44:09;;;;;;;12.20;5.27;;;;;17.20;101859.00;;;;5019873;28;20232;-69
2023/10/01 08:46:56;;;;;;;15.97;5.80;;;;;17.30;101853.00;;;;5018253;28;20225;-70
2023/10/01 08:49:44;;;;;;;12.60;5.47;;;;;17.40;101860.00;;;;5014253;28;20365;-67
2023/10/01 08:52:35;;;;;;;11.80;5.50;;;;;17.50;101869.00;;;;5023894;28;20233;-69
2023/10/01 08:55:27;;;;;;;11.60;5.57;;;;;17.60;101865.00;;;;5015015;28;20367;-69
2023/10/01 08:58:25;;;;;;;12.73;5.80;;;;;17.70;101870.00;;;;5017346;28;20360;-65
2023/10/01 09:01:12;;;;;;;10.73;5.37;;;;;17.80;101863.00;;;;5020308;28;20225;-68
2023/10/01 09:04:29;;;;;;;15.50;5.63;;;;;18.00;101860.00;;;;5015842;28;20820;-68
2023/10/01 09:07:11;;;;;;;13.83;6.10;;;;;18.00;101864.00;;;;5023989;28;20229;-68
2023/10/01 09:10:08;;;;;;;11.63;5.50;;;;;18.20;101865.00;;;;5020326;28;20365;-66
2023/10/01 09:13:03;;;;;;;13.50;6.10;;;;;18.40;101865.00;;;;5016724;28;20723;-68
2023/10/01 09:15:55;;;;;;;12.13;5.30;;;;;18.50;101857.00;;;;5019603;28;20237;-67
2023/10/01 09:19:03;;;;;;;11.13;5.50;;;;;18.70;101857.00;;;;5013003;28;20382;-67
2023/10/01 09:21:50;;;;;;;11.73;6.23;;;;;18.80;101845.00;;;;5016051;28;20361;-67
2023/10/01 09:24:39;;;;;;;14.27;5.73;;;;;18.90;101842.00;;;;5014912;28;20250;-68
2023/10/01 09:27:28;;;;;;;14.40;6.00;;;;;19.10;101845.00;;;;5010976;28;20229;-67
2023/10/01 09:30:34;;;;;;;13.57;5.87;;;;;19.10;101847.00;;;;5024091;28;20244;-68
2023/10/01 09:33:24;;;;;;;12.63;5.37;;;;;19.10;101838.00;;;;5018109;28;20224;-68
2023/10/01 09:36:31;;;;;;;14.67;6.03;;;;;19.10;101845.00;;;;5021061;28;20218;-68
2023/10/01 09:39:22;;;;;;;14.07;5.80;;;;;19.20;101852.00;;;;5017619;28;20292;-68
2023/10/01 09:42:28;;;;;;;11.23;5.67;;;;;19.40;101854.00;;;;5020341;28;20693;-68
2023/10/01 09:45:27;;;;;;;12.97;5.90;;;;;19.50;101851.00;;;;5022675;28;20229;-67
2023/10/01 09:48:29;;;;;;;15.87;5.77;;;;;19.50;101865.00;;;;5024841;28;20235;-67
2023/10/01 09:51:15;;;;;;;13.63;5.83;;;;;19.70;101847.00;;;;5025093;28;20301;-69
2023/10/01 09:54:05;;;;;;;11.50;5.57;;;;;19.80;101850.00;;;;5020258;28;20250;-67
2023/10/01 09:56:51;;;;;;;12.47;5.80;;;;;19.90;101844.00;;;;5046084;28;20235;-70
2023/10/01 09:59:40;;;;;;;13.93;6.03;;;;;20.10;101847.00;;;;5032037;28;20239;-69
2023/10/01 10:02:28;;;;;;;12.33;5.63;;;;;20.20;101841.00;;;;5038767;28;20480;-69
2023/10/01 10:05:24;;;;;;;16.10;6.13;;;;;20.30;101841.00;;;;5038034;28;20236;-70
2023/10/01 10:08:20;;;;;;;14.27;5.80;;;;;20.30;101833.00;;;;5047628;28;20268;-70
2023/10/01 10:11:13;;;;;;;12.53;5.70;;;;;20.40;101836.00;;;;5050239;28;20239;-70
2023/10/01 10:14:00;;;;;;;11.57;5.83;;;;;20.40;101834.00;;;;5048677;28;20228;-69
2023/10/01 10:16:57;;;;;;;12.77;6.30;;;;;20.50;101830.00;;;;5045111;28;20228;-69
2023/10/01 10:20:15;;;;;;;12.60;6.20;;;;;20.70;101836.00;;;;5032094;28;20234;-66
2023/10/01 10:23:16;;;;;;;10.67;5.60;;;;;20.80;101831.00;;;;5015522;28;20228;-66
2023/10/01 10:26:13;;;;;;;13.40;5.80;;;;;20.80;101831.00;;;;5016343;28;20315;-67
2023/10/01 10:29:00;;;;;;;13.47;5.80;;;;;20.90;101826.00;;;;5019786;28;20245;-67
2023/10/01 10:32:09;;;;;;;13.57;5.43;;;;;21.10;101834.00;;;;5012182;28;20240;-70
2023/10/01 10:35:21;;;;;;;14.63;5.50;;;;;21.20;101833.00;;;;5019018;28;20306;-69
2023/10/01 10:38:09;;;;;;;11.70;5.77;;;;;21.20;101840.00;;;;5009986;28;20280;-69
2023/10/01 10:41:06;;;;;;;11.67;6.10;;;;;21.30;101842.00;;;;5014845;28;20228;-67
2023/10/01 10:44:10;;;;;;;23.83;7.27;;;;;21.30;101829.00;;;;5014090;28;20237;-67
2023/10/01 10:47:05;;;;;;;13.43;5.93;;;;;21.40;101846.00;;;;5020156;28;20248;-68
2023/10/01 10:49:52;;;;;;;17.37;6.00;;;;;21.50;101835.00;;;;5024488;28;20232;-66
2023/10/01 10:52:38;;;;;;;13.60;5.63;;;;;21.60;101839.00;;;;5017736;28;20251;-68
2023/10/01 10:55:36;;;;;;;13.73;6.07;;;;;21.70;101835.00;;;;5021544;28;20224;-67
2023/10/01 10:58:24;;;;;;;12.93;5.73;;;;;21.80;101836.00;;;;5017813;28;20719;-66
2023/10/01 11:01:19;;;;;;;14.60;6.23;;;;;21.90;101831.00;;;;5019306;28;20252;-67
2023/10/01 11:04:08;;;;;;;14.30;6.13;;;;;22.10;101836.00;;;;5020724;28;20304;-67
2023/10/01 11:07:02;;;;;;;12.77;5.53;;;;;22.10;101836.00;;;;5010739;28;20358;-68
2023/10/01 11:09:54;;;;;;;14.47;5.80;;;;;22.30;101835.00;;;;5017162;28;20230;-66
2023/10/01 11:12:46;;;;;;;14.40;5.47;;;;;22.50;101837.00;;;;5016786;28;20611;-68
2023/10/01 11:15:38;;;;;;;15.33;5.53;;;;;22.50;101838.00;;;;5013247;28;20308;-67
2023/10/01 11:18:26;;;;;;;15.13;6.13;;;;;22.50;101835.00;;;;5005638;28;20300;-66
2023/10/01 11:21:20;;;;;;;13.33;5.80;;;;;22.70;101838.00;;;;5018214;28;20324;-67
2023/10/01 11:24:06;;;;;;;13.93;5.47;;;;;22.70;101829.00;;;;5020431;28;20234;-69
2023/10/01 11:27:25;;;;;;;13.37;5.60;;;;;22.70;101826.00;;;;5017054;28;20261;-66
2023/10/01 11:30:16;;;;;;;12.90;6.00;;;;;22.80;101832.00;;;;4950108;28;20772;-70
2023/10/01 11:33:12;;;;;;;17.37;5.70;;;;;22.70;101825.00;;;;5012556;28;20254;-68
2023/10/01 11:36:06;;;;;;;15.97;6.57;;;;;22.90;101822.00;;;;5020577;28;20229;-70
2023/10/01 11:38:56;;;;;;;12.97;6.10;;;;;23.10;101817.00;;;;5017540;28;20357;-70
2023/10/01 11:41:42;;;;;;;11.20;5.80;;;;;23.20;101808.00;;;;5019291;28;20237;-69
2023/10/01 11:44:35;;;;;;;14.50;5.93;;;;;23.40;101813.00;;;;5024017;28;20241;-69
2023/10/01 11:50:25;;;;;;;12.40;5.37;;;;;23.50;101798.00;;;;5022271;28;20233;-72
2023/10/01 11:53:16;;;;;;;14.20;5.53;;;;;23.50;101807.00;;;;5023839;28;20261;-69
2023/10/01 11:56:11;;;;;;;14.10;6.10;;;;;23.30;101809.00;;;;5022520;28;20230;-70
2023/10/01 11:58:57;;;;;;;13.07;5.93;;;;;23.40;101790.00;;;;5022999;28;20292;-69
2023/10/01 12:01:50;;;;;;;16.70;7.00;;;;;23.40;101784.00;;;;5021527;28;20220;-68
2023/10/01 12:04:49;;;;;;;12.60;5.73;;;;;23.40;101783.00;;;;5025807;28;20820;-68
2023/10/01 12:07:39;;;;;;;12.33;5.30;;;;;23.70;101774.00;;;;5022035;28;20238;-67
2023/10/01 12:10:34;;;;;;;13.57;5.40;;;;;23.80;101783.00;;;;5026450;28;20254;-68
2023/10/01 12:13:22;;;;;;;13.70;5.87;;;;;23.90;101784.00;;;;5020728;28;20254;-68
2023/10/01 12:16:08;;;;;;;15.30;6.10;;;;;23.90;101775.00;;;;5015751;28;20235;-67
2023/10/01 12:19:17;;;;;;;13.13;6.07;;;;;23.80;101777.00;;;;5022207;28;20261;-69
2023/10/01 12:22:06;;;;;;;12.73;5.73;;;;;23.90;101775.00;;;;5022595;28;20229;-68
2023/10/01 12:24:57;;;;;;;13.80;6.53;;;;;23.90;101770.00;;;;5018045;28;20738;-68
2023/10/01 12:27:47;;;;;;;14.30;5.40;;;;;24.10;101773.00;;;;5020029;28;20225;-67
2023/10/01 12:30:35;;;;;;;11.20;5.40;;;;;24.10;101771.00;;;;5019723;28;20323;-68
2023/10/01 12:33:21;;;;;;;13.27;5.93;;;;;24.00;101756.00;;;;5024591;28;20307;-69
2023/10/01 12:36:31;;;;;;;15.60;6.37;;;;;24.20;101757.00;;;;5010281;28;20233;-69
2023/10/01 12:39:26;;;;;;;15.80;5.87;;;;;24.20;101766.00;;;;5018954;28;20241;-69
2023/10/01 12:42:13;;;;;;;14.47;6.03;;;;;24.10;101772.00;;;;5016173;28;20233;-67
2023/10/01 12:45:13;;;;;;;14.83;5.77;;;;;24.00;101777.00;;;;5021874;28;20233;-67
2023/10/01 12:48:08;;;;;;;13.63;6.27;;;;;24.20;101769.00;;;;5024171;28;20237;-69
2023/10/01 12:51:00;;;;;;;14.68;6.25;;;;;24.40;101768.00;;;;5024894;28;20288;-67
2023/10/01 12:53:48;;;;;;;17.07;6.80;;;;;24.30;101767.00;;;;5019153;28;20238;-67
2023/10/01 12:57:02;;;;;;;15.80;6.50;;;;;24.10;101764.00;;;;5014524;28;20284;-68
2023/10/01 13:00:21;;;;;;;12.93;5.80;;;;;24.10;101762.00;;;;5010725;28;20241;-68
2023/10/01 13:02:55;;;;;;;13.98;5.82;;;;;24.10;101753.00;;;;5013419;28;20607;-70
2023/10/01 13:05:45;;;;;;;14.23;6.67;;;;;24.20;101750.00;;;;5017403;28;20300;-70
2023/10/01 13:08:34;;;;;;;12.30;5.57;;;;;24.10;101751.00;;;;5020689;28;20230;-67
2023/10/01 13:14:23;;;;;;;13.13;5.80;;;;;24.30;101749.00;;;;5020813;28;20885;-66
2023/10/01 13:17:35;;;;;;;13.63;5.93;;;;;24.40;101750.00;;;;5024061;28;20874;-69
2023/10/01 13:20:23;;;;;;;13.30;6.17;;;;;24.40;101739.00;;;;5022952;28;20241;-69
2023/10/01 13:23:11;;;;;;;13.57;5.88;;;;;24.50;101742.00;;;;5008028;28;20234;-67
2023/10/01 13:26:06;;;;;;;14.10;6.32;;;;;24.60;101739.00;;;;5019665;28;20229;-68
2023/10/01 13:28:56;;;;;;;14.93;6.40;;;;;24.80;101740.00;;;;5018669;28;20237;-68
2023/10/01 13:31:43;;;;;;;14.75;6.47;;;;;24.90;101734.00;;;;5025160;28;20224;-70
2023/10/01 13:34:46;;;;;;;12.30;5.97;;;;;25.10;101733.00;;;;5020955;28;20233;-68
2023/10/01 14:08:42;;;;;;;13.43;6.38;;;;;25.00;101721.00;;;;5021201;28;20229;-72
2023/10/01 14:08:43;;;;;;;14.13;6.15;;;;;24.30;101702.00;;;;4962568;28;20297;-69
2023/10/01 14:11:39;;;;;;;15.88;6.63;;;;;24.30;101703.00;;;;4960253;28;20606;-67
2023/10/01 14:14:33;;;;;;;12.07;6.22;;;;;24.10;101697.00;;;;5018324;28;20319;-70
2023/10/01 14:17:19;;;;;;;13.32;6.30;;;;;24.00;101697.00;;;;5021491;28;20225;-67
2023/10/01 14:20:08;;;;;;;13.17;6.40;;;;;23.90;101694.00;;;;5008476;28;20722;-68
2023/10/01 14:23:00;;;;;;;14.17;6.57;;;;;24.00;101696.00;;;;5021929;28;20228;-68
2023/10/01 14:25:53;;;;;;;14.80;7.00;;;;;23.90;101701.00;;;;5016419;28;20976;-68
2023/10/01 14:28:45;;;;;;;12.60;6.23;;;;;23.90;101697.00;;;;5021537;28;20730;-68
2023/10/01 14:31:49;;;;;;;14.27;6.43;;;;;23.80;101691.00;;;;5016053;28;20608;-68
2023/10/01 14:34:36;;;;;;;19.40;6.00;;;;;23.80;101681.00;;;;5018629;28;20751;-68
2023/10/01 14:37:23;;;;;;;12.17;6.23;;;;;23.70;101682.00;;;;5013458;28;20233;-68